Time;durP1;ratioP1;P1;durP2;ratioP2;P2;SDS_P1;SDS_P2;PMS_P1;PMS_P2;Temp;Humidity;BMP_temperature;BMP_pressure;BME280_temperature;BME280_humidity;BME280_pressure;Samples;Min_cycle;Max_cycle;Signal;HPM_P1;HPM_P2
2022/05/26 00:04:23;;;;;;;3.75;0.52;;;;;;;15.71;42.26;100635.09;10480106;28;20237;-82
2022/05/26 00:09:25;;;;;;;1.43;0.60;;;;;;;15.21;43.91;100641.31;10493156;28;20207;-89
2022/05/26 00:14:29;;;;;;;0.47;0.40;;;;;;;16.04;41.85;100624.19;10490378;28;20187;-90
2022/05/26 00:19:32;;;;;;;3.57;0.70;;;;;;;14.90;45.36;100637.13;10433230;28;20242;-91
2022/05/26 00:24:35;;;;;;;2.07;0.53;;;;;;;15.08;45.06;100640.50;10407182;28;20193;-81
2022/05/26 00:29:37;;;;;;;0.87;0.60;;;;;;;15.42;44.72;100636.25;10406160;28;20209;-82
2022/05/26 00:34:42;;;;;;;2.70;0.80;;;;;;;14.97;45.79;100639.38;10391944;28;20208;-84
2022/05/26 00:39:45;;;;;;;1.98;0.60;;;;;;;16.54;42.29;100631.19;10428459;28;20278;-81
2022/05/26 00:44:47;;;;;;;0.57;0.43;;;;;;;16.64;42.19;100630.63;10420201;28;20192;-82
2022/05/26 00:50:15;;;;;;;4.03;0.83;;;;;;;16.34;42.63;100635.16;10426888;28;20209;-82
2022/05/26 00:55:32;;;;;;;2.13;0.63;;;;;;;16.57;42.04;100630.44;10389498;28;20266;-93
2022/05/26 01:00:36;;;;;;;3.17;0.80;;;;;;;16.45;42.83;100627.72;10422297;28;20184;-82
2022/05/26 01:05:45;;;;;;;3.43;0.43;;;;;;;16.43;42.17;100630.91;10371836;28;20200;-88
2022/05/26 01:10:47;;;;;;;4.63;0.55;;;;;;;16.54;42.36;100631.19;10405107;28;20612;-82
2022/05/26 01:16:04;;;;;;;2.17;0.70;;;;;;;15.43;44.56;100638.72;10404549;28;20201;-96
2022/05/26 01:21:30;;;;;;;2.17;0.50;;;;;;;16.06;43.02;100650.25;10392090;28;20176;-82
2022/05/26 01:27:07;;;;;;;2.53;0.53;;;;;;;16.74;42.19;100638.59;10403161;28;20215;-81
2022/05/26 01:32:44;;;;;;;2.73;0.50;;;;;;;16.48;42.81;100633.50;10427772;28;20730;-95
2022/05/26 01:38:26;;;;;;;2.50;0.50;;;;;;;15.38;45.07;100635.31;10402783;28;20228;-83
2022/05/26 01:43:41;;;;;;;1.60;0.40;;;;;;;15.56;44.88;100641.53;10415151;28;20266;-83
2022/05/26 01:49:06;;;;;;;2.93;0.67;;;;;;;16.05;43.86;100634.38;10459073;28;20191;-84
2022/05/26 01:54:11;;;;;;;3.47;0.60;;;;;;;15.24;45.88;100651.94;10435046;28;20219;-96
2022/05/26 01:59:31;;;;;;;1.00;0.52;;;;;;;15.90;44.58;100651.41;10445919;28;20266;-89
2022/05/26 02:04:47;;;;;;;1.43;0.70;;;;;;;15.38;45.98;100653.19;10444660;28;20242;-96
2022/05/26 02:09:52;;;;;;;0.87;0.70;;;;;;;16.43;43.90;100648.00;10442954;28;20207;-93
2022/05/26 02:15:00;;;;;;;1.10;0.57;;;;;;;15.00;46.76;100662.16;10455911;28;20278;-96
2022/05/26 02:20:28;;;;;;;2.55;0.75;;;;;;;15.33;46.56;100670.50;10468200;28;20269;-96
2022/05/26 02:25:33;;;;;;;2.10;0.60;;;;;;;16.10;44.89;100656.88;10439642;28;20192;-94
2022/05/26 02:30:41;;;;;;;2.38;0.80;;;;;;;15.26;46.89;100660.91;10445318;28;20281;-94
2022/05/26 02:35:47;;;;;;;3.13;1.20;;;;;;;16.36;44.67;100653.50;10442247;28;20223;-85
2022/05/26 02:40:51;;;;;;;1.87;0.63;;;;;;;17.32;42.62;100650.09;10455546;28;20191;-83
2022/05/26 02:53:07;;;;;;;4.47;0.80;;;;;;;16.61;43.96;100656.16;10479885;28;20232;-94
2022/05/26 02:58:27;;;;;;;2.85;0.70;;;;;;;16.04;45.47;100669.69;10427476;28;20228;-95
2022/05/26 03:03:37;;;;;;;2.63;0.90;;;;;;;15.82;46.16;100684.50;10451938;28;20199;-84
2022/05/26 03:08:41;;;;;;;2.47;0.90;;;;;;;15.99;45.98;100684.19;10449610;28;20204;-81
2022/05/26 03:13:43;;;;;;;4.28;1.10;;;;;;;16.10;47.18;100685.31;10437679;28;20324;-92
2022/05/26 03:18:45;;;;;;;2.70;1.00;;;;;;;15.40;49.00;100684.88;10424341;28;20272;-86
2022/05/26 03:23:49;;;;;;;2.27;1.37;;;;;;;15.86;48.82;100691.13;10462653;28;20250;-84
2022/05/26 03:28:54;;;;;;;2.47;1.57;;;;;;;16.20;47.71;100678.25;10446156;28;20234;-83
2022/05/26 03:44:38;;;;;;;3.70;1.80;;;;;;;17.19;45.44;100680.75;10455096;28;20210;-89
2022/05/26 03:49:40;;;;;;;4.87;1.97;;;;;;;17.50;44.91;100688.34;10441412;23;20597;-83
2022/05/26 03:54:46;;;;;;;2.17;1.97;;;;;;;17.24;44.33;100699.56;10463872;28;20521;-95
2022/05/26 03:59:48;;;;;;;4.93;1.73;;;;;;;16.72;46.01;100695.06;10475603;23;20235;-82
2022/05/26 04:04:51;;;;;;;3.40;1.80;;;;;;;16.84;45.32;100709.19;10477143;28;20526;-82
2022/05/26 04:09:53;;;;;;;3.08;1.80;;;;;;;17.23;44.78;100706.47;10470480;28;20208;-84
2022/05/26 04:14:56;;;;;;;4.25;1.48;;;;;;;17.42;45.26;100714.22;10464386;28;20269;-82
2022/05/26 04:19:58;;;;;;;2.07;1.70;;;;;;;17.66;45.11;100724.53;10483156;28;20199;-83
2022/05/26 04:25:04;;;;;;;5.22;1.90;;;;;;;16.03;50.95;100743.97;10458236;28;20199;-83
2022/05/26 04:30:31;;;;;;;4.63;2.23;;;;;;;16.93;50.04;100741.16;10469669;28;20632;-82
2022/05/26 04:35:50;;;;;;;4.93;2.25;;;;;;;16.32;51.77;100743.63;10467221;28;20195;-82
2022/05/26 04:41:07;;;;;;;2.73;1.93;;;;;;;16.38;52.61;100758.41;10477178;28;20202;-82
2022/05/26 04:46:23;;;;;;;3.50;2.13;;;;;;;16.36;52.63;100757.94;10469295;28;20226;-82
2022/05/26 04:51:47;;;;;;;3.07;2.13;;;;;;;16.52;52.07;100767.34;10458538;28;20216;-81
2022/05/26 04:57:07;;;;;;;3.20;2.37;;;;;;;16.22;52.56;100766.88;10425626;28;20192;-81
2022/05/26 05:02:47;;;;;;;5.53;2.33;;;;;;;15.32;54.86;100773.09;10517739;22;20236;-83
2022/05/26 05:08:31;;;;;;;3.93;3.07;;;;;;;16.19;52.64;100765.59;10502020;23;20300;-95
2022/05/26 05:18:57;;;;;;;3.53;2.90;;;;;;;16.30;53.35;100782.16;10372600;28;20245;-94
2022/05/26 05:24:14;;;;;;;8.07;3.50;;;;;;;15.69;54.50;100785.22;10365381;28;20193;-94
2022/05/26 05:29:19;;;;;;;7.30;4.57;;;;;;;16.12;53.61;100793.84;10380354;28;20235;-95
2022/05/26 05:34:30;;;;;;;9.07;6.40;;;;;;;16.35;53.31;100796.94;10359830;28;20209;-90
2022/05/26 05:39:43;;;;;;;9.27;7.87;;;;;;;16.00;54.10;100808.09;10360664;28;20193;-95
2022/05/26 05:44:45;;;;;;;11.52;9.73;;;;;;;16.21;52.78;100810.72;10407052;28;20192;-81
2022/05/26 05:50:10;;;;;;;13.43;10.93;;;;;;;16.50;52.40;100818.09;10402843;28;20680;-92
2022/05/26 06:15:07;;;;;;;14.03;11.43;;;;;;;16.37;52.54;100842.09;10078281;29;20306;-95
2022/05/26 06:20:18;;;;;;;14.13;10.33;;;;;;;16.73;51.63;100844.72;10104204;29;20214;-96
2022/05/26 06:25:20;;;;;;;15.95;10.98;;;;;;;16.60;51.48;100848.03;10075581;29;20270;-94
2022/05/26 06:30:50;;;;;;;14.13;9.53;;;;;;;17.25;50.02;100849.38;10079329;29;20222;-88
2022/05/26 06:47:20;;;;;;;15.77;10.47;;;;;;;17.12;50.60;100860.03;10300153;28;20190;-83
2022/05/26 06:52:25;;;;;;;15.23;10.40;;;;;;;17.46;49.14;100858.44;10433850;23;20229;-82
2022/05/26 06:57:30;;;;;;;13.73;10.50;;;;;;;16.16;52.76;100879.22;10365937;23;20586;-82
2022/05/26 07:03:18;;;;;;;16.77;10.02;;;;;;;16.57;50.89;100880.88;10622565;23;20570;-82
2022/05/26 07:08:26;;;;;;;15.93;11.63;;;;;;;17.33;49.34;100884.53;10395408;23;20241;-83
2022/05/26 07:13:34;;;;;;;14.17;10.67;;;;;;;16.99;50.56;100897.50;10319566;28;20276;-82
2022/05/26 07:18:42;;;;;;;19.85;12.15;;;;;;;17.23;49.75;100891.63;10471044;23;20720;-93
2022/05/26 07:23:44;;;;;;;16.93;11.90;;;;;;;17.56;48.16;100905.50;10315077;28;20606;-93
2022/05/26 07:29:15;;;;;;;17.25;11.18;;;;;;;16.81;49.96;100902.69;10310697;28;20190;-95
2022/05/26 07:34:21;;;;;;;18.70;12.15;;;;;;;17.09;49.70;100911.19;10322756;28;20221;-94
2022/05/26 07:44:49;;;;;;;19.40;12.25;;;;;;;18.05;46.22;100900.19;10335439;28;20240;-96
2022/05/26 07:49:51;;;;;;;15.25;11.18;;;;;;;18.35;45.37;100902.50;10323544;28;20202;-92
2022/05/26 07:54:54;;;;;;;16.48;11.50;;;;;;;17.52;47.35;100922.50;10331311;28;20518;-90
2022/05/26 07:59:58;;;;;;;14.27;10.68;;;;;;;17.65;45.74;100922.44;10288570;28;20211;-88
2022/05/26 08:05:13;;;;;;;12.13;9.65;;;;;;;18.42;43.95;100914.03;10318941;28;20237;-85
2022/05/26 08:10:20;;;;;;;15.27;9.10;;;;;;;17.63;44.38;100929.34;10345836;28;20236;-87
2022/05/26 08:15:22;;;;;;;12.50;9.82;;;;;;;18.86;42.96;100923.94;10299908;28;20190;-92
2022/05/26 08:20:26;;;;;;;14.65;9.20;;;;;;;17.58;45.09;100932.44;10320043;23;20534;-85
2022/05/26 08:25:29;;;;;;;12.90;9.38;;;;;;;18.07;44.71;100936.91;10310568;28;20265;-86
2022/05/26 08:30:32;;;;;;;17.70;8.95;;;;;;;17.32;44.13;100952.09;10310439;28;20515;-90
2022/05/26 08:35:37;;;;;;;12.63;8.40;;;;;;;18.15;42.74;100945.22;10309661;28;20194;-96
2022/05/26 08:40:48;;;;;;;15.73;10.20;;;;;;;18.72;42.33;100957.94;10294097;28;20194;-90
2022/05/26 08:45:53;;;;;;;15.05;9.32;;;;;;;18.09;43.37;100958.16;10305359;28;20590;-92
2022/05/26 08:50:57;;;;;;;14.13;9.70;;;;;;;18.68;42.60;100965.59;10318565;28;20245;-88
2022/05/26 08:56:00;;;;;;;13.65;9.90;;;;;;;17.82;43.84;100968.50;10286544;28;20701;-83
2022/05/26 09:01:07;;;;;;;13.13;9.20;;;;;;;16.95;46.00;100977.13;10284647;28;20194;-87
2022/05/26 09:06:18;;;;;;;12.07;9.02;;;;;;;18.01;44.13;100984.84;10301231;28;20194;-84
2022/05/26 09:16:47;;;;;;;11.88;6.93;;;;;;;17.55;43.89;100995.91;10304231;28;20258;-84
2022/05/26 09:21:51;;;;;;;9.47;6.33;;;;;;;18.44;42.16;100983.00;10302465;28;20210;-95
2022/05/26 09:26:59;;;;;;;6.68;5.88;;;;;;;18.71;40.86;100973.41;10298537;28;20251;-94
2022/05/26 09:32:18;;;;;;;9.32;5.88;;;;;;;18.33;41.30;100991.34;10305994;28;20226;-93
2022/05/26 09:37:53;;;;;;;8.68;5.80;;;;;;;19.01;40.26;100994.44;10286539;28;20210;-87
2022/05/26 09:43:25;;;;;;;10.55;4.72;;;;;;;19.10;40.12;100993.41;10257044;28;20219;-95
2022/05/26 09:48:37;;;;;;;10.30;4.60;;;;;;;19.44;38.16;100995.25;10291522;28;20214;-91
2022/05/26 09:53:43;;;;;;;10.90;4.47;;;;;;;20.20;38.05;100996.19;10316286;28;20254;-85
2022/05/26 09:58:46;;;;;;;9.60;4.72;;;;;;;19.61;37.63;101000.53;10321702;28;20194;-87
2022/05/26 10:04:13;;;;;;;10.65;4.88;;;;;;;20.26;36.61;100991.78;10289796;28;20199;-94
2022/05/26 10:09:50;;;;;;;7.88;4.10;;;;;;;19.63;38.10;101003.81;10274679;28;20194;-84
2022/05/26 10:15:11;;;;;;;5.80;4.03;;;;;;;19.72;38.37;101018.69;10278944;28;20566;-81
2022/05/26 10:20:34;;;;;;;8.30;4.20;;;;;;;19.54;37.28;101006.06;10268709;28;20296;-82
2022/05/26 10:25:56;;;;;;;7.22;3.90;;;;;;;19.44;37.04;101009.56;10274489;28;20588;-86
2022/05/26 10:31:21;;;;;;;7.85;4.57;;;;;;;19.65;37.24;101012.81;10256654;28;20245;-91
2022/05/26 10:36:49;;;;;;;8.45;4.00;;;;;;;19.82;37.15;101002.06;10265083;28;20335;-84
2022/05/26 10:42:05;;;;;;;5.30;3.17;;;;;;;19.06;37.06;101009.63;10301528;28;20221;-83
2022/05/26 10:47:15;;;;;;;8.43;3.50;;;;;;;19.24;35.96;101020.22;10270151;28;20203;-86
2022/05/26 10:52:34;;;;;;;6.43;3.42;;;;;;;19.09;37.06;101023.16;10276227;28;20543;-89
2022/05/26 10:57:39;;;;;;;6.28;3.17;;;;;;;19.51;36.92;101026.03;10275376;28;20203;-93
2022/05/26 11:02:52;;;;;;;5.75;3.08;;;;;;;20.19;35.76;101017.44;10254271;28;20198;-82
2022/05/26 11:08:16;;;;;;;3.10;2.30;;;;;;;19.61;35.34;101017.69;10273213;28;20194;-91
2022/05/26 11:13:42;;;;;;;6.80;3.47;;;;;;;20.82;33.69;101008.16;10289239;28;20249;-92
2022/05/26 11:18:48;;;;;;;7.63;3.05;;;;;;;19.77;34.54;101025.31;10280118;28;20214;-90
2022/05/26 11:23:51;;;;;;;7.53;2.53;;;;;;;20.25;34.03;101017.94;10239175;29;20637;-89
2022/05/26 11:29:08;;;;;;;6.05;3.10;;;;;;;20.10;34.95;101017.69;10235492;29;20258;-90
2022/05/26 11:39:39;;;;;;;4.80;2.20;;;;;;;19.71;33.89;101022.75;10253362;28;20230;-87
2022/05/26 11:44:53;;;;;;;4.95;2.33;;;;;;;19.40;34.99;101040.09;10255993;28;20199;-91
2022/05/26 11:49:55;;;;;;;4.03;2.53;;;;;;;20.85;33.30;101030.25;10268368;28;20581;-91
2022/05/26 11:55:19;;;;;;;6.70;2.40;;;;;;;19.21;33.19;101031.56;10259431;28;20230;-91
2022/05/26 12:00:34;;;;;;;5.55;2.55;;;;;;;19.91;33.79;101019.81;10237607;28;20207;-89
2022/05/26 12:05:36;;;;;;;5.60;2.13;;;;;;;19.17;34.95;101019.25;10259504;28;20195;-89
2022/05/26 12:10:52;;;;;;;5.10;2.15;;;;;;;19.83;33.41;101012.31;10258026;28;20204;-92
2022/05/26 12:16:15;;;;;;;7.07;2.65;;;;;;;19.23;34.50;101009.16;10221229;28;20222;-93
2022/05/26 12:21:31;;;;;;;5.93;2.42;;;;;;;21.20;32.95;100998.34;10266887;28;20253;-86
2022/05/26 12:26:50;;;;;;;4.80;2.47;;;;;;;21.21;31.70;101013.50;10275615;28;20226;-88
2022/05/26 12:32:24;;;;;;;5.55;2.30;;;;;;;20.30;32.88;101009.81;10294660;28;20322;-90
2022/05/26 12:37:44;;;;;;;5.65;2.60;;;;;;;20.15;31.37;100993.63;10279318;28;20206;-86
2022/05/26 12:43:05;;;;;;;3.55;1.80;;;;;;;20.55;31.49;100977.88;10279149;28;20187;-92
2022/05/26 12:48:27;;;;;;;4.28;2.10;;;;;;;20.99;32.05;100975.16;10295035;28;20209;-89
2022/05/26 12:53:34;;;;;;;4.40;2.00;;;;;;;21.76;30.25;100974.31;10285754;28;20261;-92
2022/05/26 12:58:42;;;;;;;5.25;3.03;;;;;;;21.83;29.74;100966.59;10267121;28;20190;-90
2022/05/26 13:04:11;;;;;;;3.58;2.08;;;;;;;21.51;29.81;100968.38;10265705;28;20597;-91
2022/05/26 13:09:14;;;;;;;5.72;2.70;;;;;;;21.36;30.53;100952.22;10278222;28;20214;-92
2022/05/26 13:14:36;;;;;;;6.57;3.22;;;;;;;21.22;31.40;100972.97;10287601;28;20226;-94
2022/05/26 13:19:51;;;;;;;4.97;2.45;;;;;;;21.17;30.55;100966.78;10265266;28;20488;-95
2022/05/26 13:25:22;;;;;;;5.32;2.50;;;;;;;21.88;31.96;100948.16;10258313;28;20195;-93
2022/05/26 13:36:04;;;;;;;2.50;1.75;;;;;;;20.70;32.02;100942.44;10280457;28;20222;-91
2022/05/26 13:41:10;;;;;;;4.90;1.95;;;;;;;19.91;33.58;100952.00;10260258;28;20190;-94
2022/05/26 13:46:29;;;;;;;5.07;1.80;;;;;;;20.00;32.83;100951.69;10261294;28;20740;-93
2022/05/26 13:51:39;;;;;;;2.35;1.60;;;;;;;21.75;31.81;100939.06;10276031;28;20720;-95
2022/05/26 13:56:45;;;;;;;3.33;1.80;;;;;;;20.60;31.30;100937.41;10284688;28;20638;-88
2022/05/26 14:01:52;;;;;;;7.50;1.90;;;;;;;21.20;30.66;100937.31;10277138;28;20183;-93
2022/05/26 14:06:56;;;;;;;3.83;1.70;;;;;;;21.22;30.30;100934.84;10269947;28;20205;-92
2022/05/26 14:12:06;;;;;;;8.93;2.00;;;;;;;21.72;30.21;100930.44;10286805;28;20218;-89
2022/05/26 14:17:32;;;;;;;5.90;1.67;;;;;;;21.06;31.87;100944.56;10272698;28;20198;-92
2022/05/26 14:22:35;;;;;;;6.68;1.90;;;;;;;20.34;33.40;100930.53;10280908;28;20226;-89
2022/05/26 14:27:58;;;;;;;4.80;1.50;;;;;;;20.18;33.82;100938.50;10253494;28;20258;-85
2022/05/26 14:33:21;;;;;;;4.57;1.42;;;;;;;19.76;34.08;100940.69;10282359;28;20210;-86
2022/05/26 14:38:25;;;;;;;3.50;1.60;;;;;;;20.18;33.42;100934.78;10286290;28;20224;-89
2022/05/26 14:43:35;;;;;;;3.92;1.35;;;;;;;20.60;33.50;100923.91;10288954;28;20469;-86
2022/05/26 14:48:38;;;;;;;3.83;1.80;;;;;;;21.46;32.05;100925.72;10277571;28;20198;-92
2022/05/26 14:59:00;;;;;;;3.88;1.23;;;;;;;20.53;32.26;100920.16;10287413;28;20227;-89
2022/05/26 15:04:03;;;;;;;4.18;1.70;;;;;;;21.26;31.59;100918.53;10289679;28;20249;-84
2022/05/26 15:09:12;;;;;;;3.22;1.73;;;;;;;21.63;32.08;100912.72;10265252;28;20202;-82
2022/05/26 15:14:19;;;;;;;6.00;1.45;;;;;;;21.54;31.27;100920.88;10284354;28;20233;-88
2022/05/26 15:19:36;;;;;;;6.45;1.83;;;;;;;20.43;32.52;100911.03;10287045;28;20257;-82
2022/05/26 15:24:40;;;;;;;1.98;1.20;;;;;;;20.48;32.93;100906.19;10249266;28;20714;-83
2022/05/26 15:29:42;;;;;;;4.70;1.50;;;;;;;21.58;31.39;100908.22;10274080;28;20190;-85
2022/05/26 15:34:44;;;;;;;3.03;1.20;;;;;;;20.34;33.56;100907.66;10276257;28;20218;-83
2022/05/26 15:39:47;;;;;;;2.78;1.20;;;;;;;21.33;31.04;100898.53;10280860;28;20255;-88
2022/05/26 15:44:50;;;;;;;7.22;4.22;;;;;;;21.75;31.49;100893.16;10275489;28;20344;-88
2022/05/26 15:49:53;;;;;;;4.82;1.30;;;;;;;22.14;30.96;100886.84;10278259;28;20198;-91
2022/05/26 15:54:55;;;;;;;2.38;1.40;;;;;;;21.50;31.55;100895.00;10280078;28;20368;-91
2022/05/26 16:00:00;;;;;;;3.67;1.23;;;;;;;20.53;32.12;100874.34;10282309;28;20245;-89
2022/05/26 16:05:06;;;;;;;5.63;1.55;;;;;;;20.90;32.15;100875.19;10280936;28;20198;-90
2022/05/26 16:10:17;;;;;;;4.72;1.60;;;;;;;21.93;31.23;100869.50;10283505;28;20261;-87
2022/05/26 16:15:22;;;;;;;4.63;2.28;;;;;;;21.23;32.60;100856.25;10281262;28;20243;-94
2022/05/26 16:20:26;;;;;;;7.95;1.55;;;;;;;21.71;31.41;100857.06;10270066;28;20784;-86
2022/05/26 16:32:05;;;;;;;4.70;2.05;;;;;;;21.69;32.29;100848.84;10302575;28;20190;-91
2022/05/26 16:37:10;;;;;;;4.50;1.35;;;;;;;20.79;33.21;100855.03;10273670;28;20215;-90
2022/05/26 16:42:12;;;;;;;3.22;1.13;;;;;;;20.65;33.31;100859.75;10289144;28;20202;-93
2022/05/26 16:47:15;;;;;;;4.47;1.90;;;;;;;21.39;32.53;100859.69;10270967;28;20601;-88
2022/05/26 16:52:17;;;;;;;4.25;1.48;;;;;;;21.23;33.08;100851.31;10276021;28;20219;-91
2022/05/26 16:57:19;;;;;;;4.72;1.20;;;;;;;20.69;33.88;100849.16;10232747;28;20482;-92
2022/05/26 17:02:22;;;;;;;3.47;1.38;;;;;;;21.25;32.52;100851.75;10288480;28;20199;-94
2022/05/26 17:07:32;;;;;;;4.43;1.58;;;;;;;19.90;35.44;100861.66;10280188;28;20203;-96
2022/05/26 17:23:20;;;;;;;5.97;1.50;;;;;;;19.43;36.00;100842.09;10284364;28;20277;-92
2022/05/26 17:28:23;;;;;;;5.57;1.55;;;;;;;20.31;35.16;100841.75;10276119;28;20261;-91
2022/05/26 17:33:27;;;;;;;7.60;1.45;;;;;;;19.79;35.14;100845.50;10276576;28;20226;-90
2022/05/26 17:38:30;;;;;;;4.03;1.40;;;;;;;19.82;35.12;100847.59;10280543;28;20258;-89
2022/05/26 17:43:32;;;;;;;3.45;1.40;;;;;;;19.72;35.45;100838.50;10290318;28;20194;-93
2022/05/26 17:48:34;;;;;;;3.50;1.23;;;;;;;19.05;36.72;100845.94;10260583;28;20217;-92
2022/05/26 17:53:36;;;;;;;4.43;1.48;;;;;;;20.33;34.86;100831.56;10250511;28;20238;-85
2022/05/26 17:58:39;;;;;;;8.00;1.63;;;;;;;20.14;35.26;100830.88;10258543;28;20194;-88
2022/05/26 18:03:42;;;;;;;3.63;1.20;;;;;;;20.56;34.53;100833.47;10276274;28;20183;-87
2022/05/26 18:08:45;;;;;;;3.33;1.23;;;;;;;20.88;34.79;100828.91;10264094;28;20206;-89
2022/05/26 18:13:47;;;;;;;9.32;1.88;;;;;;;20.29;35.65;100830.72;10253321;28;20270;-83
2022/05/26 18:19:01;;;;;;;4.18;1.63;;;;;;;20.27;35.33;100818.81;10250817;28;20199;-84
2022/05/26 18:24:03;;;;;;;4.82;1.10;;;;;;;19.03;37.31;100820.63;10250557;29;20278;-91
2022/05/26 18:29:06;;;;;;;3.47;1.73;;;;;;;19.79;36.12;100825.50;10250012;29;20258;-87
2022/05/26 18:34:21;;;;;;;6.30;1.42;;;;;;;19.81;36.16;100811.63;10211704;29;20525;-96
2022/05/26 18:39:31;;;;;;;5.85;1.23;;;;;;;20.33;35.55;100814.38;10235383;29;20235;-86
2022/05/26 18:44:35;;;;;;;7.55;1.35;;;;;;;19.23;37.91;100811.97;10254990;28;20209;-90
2022/05/26 18:49:39;;;;;;;4.57;1.60;;;;;;;19.86;36.53;100806.41;10250261;29;20204;-89
2022/05/26 18:54:42;;;;;;;5.78;1.33;;;;;;;18.91;38.44;100800.78;10240335;29;20235;-90
2022/05/26 18:59:44;;;;;;;7.70;1.30;;;;;;;19.34;37.47;100813.78;10210248;29;20259;-95
2022/05/26 19:04:51;;;;;;;5.22;1.13;;;;;;;19.50;37.78;100809.94;10237516;29;20258;-89
2022/05/26 19:10:04;;;;;;;2.22;0.90;;;;;;;19.36;38.04;100810.53;10236640;29;20231;-93
2022/05/26 19:15:12;;;;;;;3.35;0.68;;;;;;;19.66;37.83;100808.56;10217242;29;20235;-87
2022/05/26 19:20:14;;;;;;;3.75;1.60;;;;;;;19.11;38.86;100809.31;10244946;28;20207;-89
2022/05/26 19:25:17;;;;;;;5.60;0.90;;;;;;;19.40;38.21;100808.56;10283716;23;20230;-85
2022/05/26 19:30:21;;;;;;;5.20;1.55;;;;;;;19.26;38.21;100812.03;10296372;28;20215;-95
2022/05/26 19:35:25;;;;;;;5.00;0.95;;;;;;;19.09;38.52;100824.00;10262017;28;20218;-85
2022/05/26 19:40:27;;;;;;;4.30;0.73;;;;;;;19.76;37.37;100826.28;10313773;28;20258;-84
2022/05/26 19:45:31;;;;;;;4.13;1.15;;;;;;;19.40;37.69;100829.38;10288398;28;20544;-83
2022/05/26 19:50:33;;;;;;;5.70;0.85;;;;;;;19.22;39.01;100836.88;10280051;28;20190;-84
2022/05/26 19:55:35;;;;;;;4.22;0.98;;;;;;;19.01;38.50;100845.06;10287566;28;20218;-95
2022/05/26 20:00:41;;;;;;;3.90;0.95;;;;;;;19.15;38.75;100838.75;10273242;28;20198;-94
2022/05/26 20:11:14;;;;;;;4.65;1.33;;;;;;;19.64;38.04;100851.06;10317513;28;20195;-85
2022/05/26 20:16:18;;;;;;;4.03;0.95;;;;;;;19.42;38.91;100860.44;10290656;28;20215;-85
2022/05/26 20:21:20;;;;;;;3.50;0.77;;;;;;;19.75;38.29;100862.66;10295973;28;20199;-84
2022/05/26 20:26:30;;;;;;;3.88;0.73;;;;;;;18.61;40.41;100859.81;10268567;28;20195;-84
2022/05/26 20:31:35;;;;;;;5.18;0.80;;;;;;;20.05;37.81;100865.50;10274987;28;20198;-88
2022/05/26 20:36:42;;;;;;;6.00;0.95;;;;;;;18.99;39.51;100870.34;10262841;28;20281;-94
2022/05/26 20:41:51;;;;;;;5.60;1.67;;;;;;;19.01;39.43;100885.88;10264133;28;20517;-87
2022/05/26 20:46:54;;;;;;;5.10;1.00;;;;;;;19.06;39.20;100881.88;10257030;28;20532;-88
2022/05/26 20:51:56;;;;;;;6.15;0.90;;;;;;;19.56;38.56;100857.84;10278697;28;20242;-84
2022/05/26 20:56:59;;;;;;;4.05;0.95;;;;;;;18.89;39.94;100871.75;10288493;28;20308;-83
2022/05/26 21:02:02;;;;;;;6.30;1.05;;;;;;;18.88;39.71;100869.25;10290117;28;20712;-83
2022/05/26 21:07:05;;;;;;;3.88;1.13;;;;;;;18.59;40.68;100867.91;10282131;28;20222;-84
2022/05/26 21:12:09;;;;;;;5.20;0.80;;;;;;;19.20;38.87;100869.88;10281881;28;20280;-84
2022/05/26 21:17:13;;;;;;;3.90;1.17;;;;;;;18.87;38.93;100874.19;10289598;28;20246;-84
2022/05/26 21:22:15;;;;;;;6.20;1.17;;;;;;;18.70;39.47;100866.09;10316226;28;20199;-84
2022/05/26 21:27:25;;;;;;;3.55;0.82;;;;;;;18.52;39.87;100870.63;10322747;28;20207;-85
2022/05/26 21:32:27;;;;;;;5.88;1.02;;;;;;;19.30;38.10;100874.94;10280603;28;20201;-84
2022/05/26 21:37:31;;;;;;;3.28;0.80;;;;;;;19.04;38.93;100873.69;10273966;28;20311;-85
2022/05/26 21:42:34;;;;;;;2.72;0.95;;;;;;;18.66;39.20;100880.28;10271344;28;20252;-83
2022/05/26 21:47:36;;;;;;;8.30;0.95;;;;;;;19.58;37.61;100866.03;10285154;28;20319;-84
2022/05/26 21:52:38;;;;;;;4.18;1.90;;;;;;;18.59;39.40;100873.63;10282512;28;20713;-83
2022/05/26 21:57:41;;;;;;;3.80;1.35;;;;;;;19.45;38.04;100864.56;10270018;28;20293;-84
2022/05/26 22:02:46;;;;;;;5.35;0.90;;;;;;;19.87;37.40;100870.16;10301176;28;20622;-84
2022/05/26 22:13:15;;;;;;;2.35;0.85;;;;;;;20.06;37.83;100849.97;10287971;28;20197;-84
2022/05/26 22:18:18;;;;;;;3.25;1.02;;;;;;;19.15;39.43;100855.91;10278451;28;20276;-84
2022/05/26 22:23:21;;;;;;;7.50;1.27;;;;;;;18.42;41.23;100868.38;10265107;28;20261;-85
2022/05/26 22:28:23;;;;;;;4.55;1.50;;;;;;;18.33;40.99;100869.44;10265479;28;20198;-82
2022/05/26 22:33:25;;;;;;;3.70;0.98;;;;;;;17.87;41.88;100882.66;10268361;28;20596;-88
2022/05/26 22:38:27;;;;;;;2.90;0.90;;;;;;;18.28;40.74;100869.72;10285848;28;20245;-84
2022/05/26 22:43:30;;;;;;;5.40;1.30;;;;;;;18.13;41.31;100862.03;10289176;28;20602;-85
2022/05/26 22:48:32;;;;;;;6.22;0.77;;;;;;;17.37;42.14;100877.75;10270929;28;20194;-83
2022/05/26 22:53:35;;;;;;;4.87;1.10;;;;;;;17.55;42.29;100870.47;10317625;28;20240;-83
2022/05/26 22:58:43;;;;;;;3.23;0.70;;;;;;;16.67;44.05;100868.94;10285731;28;20601;-82
2022/05/26 23:03:46;;;;;;;1.83;0.80;;;;;;;16.50;44.62;100870.13;10313509;28;20253;-84
2022/05/26 23:08:48;;;;;;;2.45;0.65;;;;;;;16.99;43.63;100886.13;10281216;28;20231;-82
2022/05/26 23:13:50;;;;;;;2.92;0.70;;;;;;;17.49;43.06;100863.41;10252773;28;20239;-83
2022/05/26 23:18:53;;;;;;;1.52;0.70;;;;;;;17.97;41.20;100856.38;10254265;28;20623;-86
2022/05/26 23:23:55;;;;;;;2.53;0.90;;;;;;;17.15;43.00;100862.16;10293401;28;20202;-83
2022/05/26 23:28:58;;;;;;;2.17;0.52;;;;;;;17.37;42.81;100851.28;10294329;28;20545;-82
2022/05/26 23:34:01;;;;;;;1.50;0.75;;;;;;;17.67;42.09;100845.94;10259751;28;20254;-83
2022/05/26 23:39:03;;;;;;;2.37;0.30;;;;;;;17.19;43.22;100845.97;10247692;28;20235;-82
2022/05/26 23:44:05;;;;;;;1.92;0.63;;;;;;;17.73;42.03;100845.25;10266331;28;20663;-84
2022/05/26 23:49:07;;;;;;;2.50;0.70;;;;;;;17.41;43.04;100852.22;10269135;28;20687;-83
2022/05/26 23:54:10;;;;;;;1.97;0.63;;;;;;;17.39;42.61;100849.72;10315706;28;20218;-85
2022/05/26 23:59:12;;;;;;;0.80;0.40;;;;;;;16.85;44.10;100847.50;10343549;28;20272;-83
